sensor_id;sensor_type;location;lat;lon;timestamp;P1;durP1;ratioP1;P2;durP2;ratioP2
16954;SDS011;8594;52.052;8.354;2023-06-01T00:01:58;27.53;;;12.80;;
16954;SDS011;8594;52.052;8.354;2023-06-01T00:04:25;25.90;;;12.87;;
16954;SDS011;8594;52.052;8.354;2023-06-01T00:06:53;28.10;;;12.47;;
16954;SDS011;8594;52.052;8.354;2023-06-01T00:09:19;25.87;;;10.97;;
16954;SDS011;8594;52.052;8.354;2023-06-01T00:11:46;25.40;;;12.07;;
16954;SDS011;8594;52.052;8.354;2023-06-01T00:14:13;26.67;;;11.93;;
16954;SDS011;8594;52.052;8.354;2023-06-01T00:16:40;25.33;;;12.60;;
16954;SDS011;8594;52.052;8.354;2023-06-01T00:19:07;26.10;;;12.90;;
16954;SDS011;8594;52.052;8.354;2023-06-01T00:21:36;30.07;;;12.67;;
16954;SDS011;8594;52.052;8.354;2023-06-01T00:24:05;26.87;;;12.17;;
16954;SDS011;8594;52.052;8.354;2023-06-01T00:26:32;21.67;;;11.70;;
16954;SDS011;8594;52.052;8.354;2023-06-01T00:28:59;29.73;;;11.50;;
16954;SDS011;8594;52.052;8.354;2023-06-01T00:31:26;27.17;;;13.27;;
16954;SDS011;8594;52.052;8.354;2023-06-01T00:33:53;27.30;;;11.97;;
16954;SDS011;8594;52.052;8.354;2023-06-01T00:36:20;25.50;;;11.47;;
16954;SDS011;8594;52.052;8.354;2023-06-01T00:38:47;23.03;;;10.90;;
16954;SDS011;8594;52.052;8.354;2023-06-01T00:41:15;21.37;;;10.40;;
16954;SDS011;8594;52.052;8.354;2023-06-01T00:43:42;26.60;;;10.90;;
16954;SDS011;8594;52.052;8.354;2023-06-01T00:46:09;23.83;;;9.80;;
16954;SDS011;8594;52.052;8.354;2023-06-01T00:48:36;22.13;;;10.10;;
16954;SDS011;8594;52.052;8.354;2023-06-01T00:51:03;20.87;;;9.30;;
16954;SDS011;8594;52.052;8.354;2023-06-01T00:53:30;21.47;;;10.00;;
16954;SDS011;8594;52.052;8.354;2023-06-01T00:55:57;20.80;;;10.00;;
16954;SDS011;8594;52.052;8.354;2023-06-01T00:58:25;15.77;;;8.77;;
16954;SDS011;8594;52.052;8.354;2023-06-01T01:00:52;20.13;;;9.10;;
16954;SDS011;8594;52.052;8.354;2023-06-01T01:03:20;17.97;;;8.80;;
16954;SDS011;8594;52.052;8.354;2023-06-01T01:05:50;15.93;;;8.17;;
16954;SDS011;8594;52.052;8.354;2023-06-01T01:08:37;15.67;;;9.00;;
16954;SDS011;8594;52.052;8.354;2023-06-01T01:11:18;14.17;;;8.43;;
16954;SDS011;8594;52.052;8.354;2023-06-01T01:13:52;19.67;;;9.10;;
16954;SDS011;8594;52.052;8.354;2023-06-01T01:16:27;18.43;;;9.13;;
16954;SDS011;8594;52.052;8.354;2023-06-01T01:19:00;18.93;;;8.00;;
16954;SDS011;8594;52.052;8.354;2023-06-01T01:21:48;17.70;;;8.50;;
16954;SDS011;8594;52.052;8.354;2023-06-01T01:24:52;15.87;;;8.30;;
16954;SDS011;8594;52.052;8.354;2023-06-01T01:27:39;20.13;;;8.90;;
16954;SDS011;8594;52.052;8.354;2023-06-01T01:30:33;21.37;;;8.40;;
16954;SDS011;8594;52.052;8.354;2023-06-01T01:33:06;16.53;;;8.67;;
16954;SDS011;8594;52.052;8.354;2023-06-01T01:35:35;17.57;;;9.10;;
16954;SDS011;8594;52.052;8.354;2023-06-01T01:38:03;17.17;;;8.63;;
16954;SDS011;8594;52.052;8.354;2023-06-01T01:40:30;19.10;;;8.70;;
16954;SDS011;8594;52.052;8.354;2023-06-01T01:42:57;18.60;;;9.97;;
16954;SDS011;8594;52.052;8.354;2023-06-01T01:45:25;18.57;;;9.03;;
16954;SDS011;8594;52.052;8.354;2023-06-01T01:47:58;21.97;;;9.30;;
16954;SDS011;8594;52.052;8.354;2023-06-01T01:50:32;22.10;;;9.43;;
16954;SDS011;8594;52.052;8.354;2023-06-01T01:53:04;20.93;;;9.90;;
16954;SDS011;8594;52.052;8.354;2023-06-01T01:55:34;19.07;;;9.73;;
16954;SDS011;8594;52.052;8.354;2023-06-01T01:58:02;19.93;;;9.03;;
16954;SDS011;8594;52.052;8.354;2023-06-01T02:00:30;22.53;;;10.13;;
16954;SDS011;8594;52.052;8.354;2023-06-01T02:02:59;21.80;;;9.73;;
16954;SDS011;8594;52.052;8.354;2023-06-01T02:05:26;14.77;;;8.53;;
16954;SDS011;8594;52.052;8.354;2023-06-01T02:07:53;15.53;;;9.23;;
16954;SDS011;8594;52.052;8.354;2023-06-01T02:10:20;18.63;;;10.03;;
16954;SDS011;8594;52.052;8.354;2023-06-01T02:12:47;18.77;;;10.20;;
16954;SDS011;8594;52.052;8.354;2023-06-01T02:15:14;21.47;;;10.17;;
16954;SDS011;8594;52.052;8.354;2023-06-01T02:17:41;18.43;;;9.50;;
16954;SDS011;8594;52.052;8.354;2023-06-01T02:20:10;18.73;;;10.13;;
16954;SDS011;8594;52.052;8.354;2023-06-01T02:22:36;19.70;;;9.83;;
16954;SDS011;8594;52.052;8.354;2023-06-01T02:25:03;18.20;;;9.97;;
16954;SDS011;8594;52.052;8.354;2023-06-01T02:27:31;19.37;;;10.17;;
16954;SDS011;8594;52.052;8.354;2023-06-01T02:29:58;20.57;;;9.47;;
16954;SDS011;8594;52.052;8.354;2023-06-01T02:32:25;20.17;;;10.03;;
16954;SDS011;8594;52.052;8.354;2023-06-01T02:34:52;18.37;;;10.40;;
16954;SDS011;8594;52.052;8.354;2023-06-01T02:37:20;20.77;;;11.33;;
16954;SDS011;8594;52.052;8.354;2023-06-01T02:39:47;22.00;;;10.13;;
16954;SDS011;8594;52.052;8.354;2023-06-01T02:42:13;18.70;;;11.53;;
16954;SDS011;8594;52.052;8.354;2023-06-01T02:44:40;20.37;;;10.43;;
16954;SDS011;8594;52.052;8.354;2023-06-01T02:47:07;20.53;;;9.80;;
16954;SDS011;8594;52.052;8.354;2023-06-01T02:49:35;23.93;;;10.90;;
16954;SDS011;8594;52.052;8.354;2023-06-01T02:52:01;21.83;;;10.53;;
16954;SDS011;8594;52.052;8.354;2023-06-01T02:54:29;20.10;;;9.43;;
16954;SDS011;8594;52.052;8.354;2023-06-01T02:56:56;28.23;;;10.90;;
16954;SDS011;8594;52.052;8.354;2023-06-01T02:59:23;22.50;;;10.80;;
16954;SDS011;8594;52.052;8.354;2023-06-01T03:01:50;18.67;;;9.57;;
16954;SDS011;8594;52.052;8.354;2023-06-01T03:04:17;22.07;;;11.10;;
16954;SDS011;8594;52.052;8.354;2023-06-01T03:06:43;22.60;;;10.70;;
16954;SDS011;8594;52.052;8.354;2023-06-01T03:09:10;21.83;;;10.27;;
16954;SDS011;8594;52.052;8.354;2023-06-01T03:11:40;16.97;;;9.60;;
16954;SDS011;8594;52.052;8.354;2023-06-01T03:14:08;21.47;;;11.33;;
16954;SDS011;8594;52.052;8.354;2023-06-01T03:16:35;22.30;;;11.60;;
16954;SDS011;8594;52.052;8.354;2023-06-01T03:19:01;24.07;;;12.53;;
16954;SDS011;8594;52.052;8.354;2023-06-01T03:21:28;21.47;;;12.10;;
16954;SDS011;8594;52.052;8.354;2023-06-01T03:23:56;23.20;;;12.10;;
16954;SDS011;8594;52.052;8.354;2023-06-01T03:26:23;24.03;;;12.10;;
16954;SDS011;8594;52.052;8.354;2023-06-01T03:28:51;22.60;;;12.07;;
16954;SDS011;8594;52.052;8.354;2023-06-01T03:31:18;26.77;;;12.50;;
16954;SDS011;8594;52.052;8.354;2023-06-01T03:33:45;22.20;;;11.97;;
16954;SDS011;8594;52.052;8.354;2023-06-01T03:36:12;25.77;;;13.13;;
16954;SDS011;8594;52.052;8.354;2023-06-01T03:38:39;27.03;;;14.43;;
16954;SDS011;8594;52.052;8.354;2023-06-01T03:41:07;29.87;;;14.80;;
16954;SDS011;8594;52.052;8.354;2023-06-01T03:43:34;33.20;;;14.67;;
16954;SDS011;8594;52.052;8.354;2023-06-01T03:46:02;26.00;;;14.97;;
16954;SDS011;8594;52.052;8.354;2023-06-01T03:48:29;25.63;;;15.50;;
16954;SDS011;8594;52.052;8.354;2023-06-01T03:50:56;27.57;;;15.57;;
16954;SDS011;8594;52.052;8.354;2023-06-01T03:53:22;44.10;;;16.50;;
16954;SDS011;8594;52.052;8.354;2023-06-01T03:55:50;33.10;;;16.60;;
16954;SDS011;8594;52.052;8.354;2023-06-01T03:58:17;26.43;;;15.43;;
16954;SDS011;8594;52.052;8.354;2023-06-01T04:00:44;34.47;;;15.30;;
16954;SDS011;8594;52.052;8.354;2023-06-01T04:03:12;33.53;;;16.43;;
16954;SDS011;8594;52.052;8.354;2023-06-01T04:05:40;30.00;;;14.63;;
16954;SDS011;8594;52.052;8.354;2023-06-01T04:08:14;32.07;;;14.70;;
16954;SDS011;8594;52.052;8.354;2023-06-01T04:10:42;28.40;;;13.27;;
16954;SDS011;8594;52.052;8.354;2023-06-01T04:13:09;27.87;;;13.33;;
16954;SDS011;8594;52.052;8.354;2023-06-01T04:15:36;26.43;;;13.07;;
16954;SDS011;8594;52.052;8.354;2023-06-01T04:18:02;29.57;;;12.53;;
16954;SDS011;8594;52.052;8.354;2023-06-01T04:20:31;24.33;;;11.77;;
16954;SDS011;8594;52.052;8.354;2023-06-01T04:22:59;31.27;;;11.87;;
16954;SDS011;8594;52.052;8.354;2023-06-01T04:25:26;26.90;;;12.13;;
16954;SDS011;8594;52.052;8.354;2023-06-01T04:27:55;22.23;;;11.07;;
16954;SDS011;8594;52.052;8.354;2023-06-01T04:30:23;24.37;;;12.07;;
16954;SDS011;8594;52.052;8.354;2023-06-01T04:32:50;23.37;;;11.40;;
16954;SDS011;8594;52.052;8.354;2023-06-01T04:35:18;20.60;;;10.73;;
16954;SDS011;8594;52.052;8.354;2023-06-01T04:37:46;21.67;;;11.37;;
16954;SDS011;8594;52.052;8.354;2023-06-01T04:40:14;24.00;;;11.43;;
16954;SDS011;8594;52.052;8.354;2023-06-01T04:42:42;25.37;;;11.17;;
16954;SDS011;8594;52.052;8.354;2023-06-01T04:45:13;20.93;;;10.90;;
16954;SDS011;8594;52.052;8.354;2023-06-01T04:47:41;26.23;;;11.27;;
16954;SDS011;8594;52.052;8.354;2023-06-01T04:50:10;18.77;;;11.20;;
16954;SDS011;8594;52.052;8.354;2023-06-01T04:52:40;24.63;;;11.23;;
16954;SDS011;8594;52.052;8.354;2023-06-01T04:55:10;23.97;;;10.93;;
16954;SDS011;8594;52.052;8.354;2023-06-01T04:57:38;21.17;;;10.87;;
16954;SDS011;8594;52.052;8.354;2023-06-01T05:00:08;23.57;;;10.97;;
16954;SDS011;8594;52.052;8.354;2023-06-01T05:02:37;23.33;;;11.97;;
16954;SDS011;8594;52.052;8.354;2023-06-01T05:05:05;27.40;;;12.17;;
16954;SDS011;8594;52.052;8.354;2023-06-01T05:07:33;26.93;;;9.97;;
16954;SDS011;8594;52.052;8.354;2023-06-01T05:10:01;22.03;;;11.73;;
16954;SDS011;8594;52.052;8.354;2023-06-01T05:12:32;29.00;;;11.10;;
16954;SDS011;8594;52.052;8.354;2023-06-01T05:15:00;29.87;;;11.33;;
16954;SDS011;8594;52.052;8.354;2023-06-01T05:17:28;26.27;;;11.40;;
16954;SDS011;8594;52.052;8.354;2023-06-01T05:19:55;29.50;;;11.50;;
16954;SDS011;8594;52.052;8.354;2023-06-01T05:22:22;22.80;;;11.80;;
16954;SDS011;8594;52.052;8.354;2023-06-01T05:24:49;28.93;;;11.80;;
16954;SDS011;8594;52.052;8.354;2023-06-01T05:27:16;22.33;;;11.17;;
16954;SDS011;8594;52.052;8.354;2023-06-01T05:29:45;27.20;;;11.63;;
16954;SDS011;8594;52.052;8.354;2023-06-01T05:32:11;29.10;;;11.03;;
16954;SDS011;8594;52.052;8.354;2023-06-01T05:34:38;25.80;;;11.60;;
16954;SDS011;8594;52.052;8.354;2023-06-01T05:37:05;24.57;;;11.10;;
16954;SDS011;8594;52.052;8.354;2023-06-01T05:39:32;23.57;;;10.60;;
16954;SDS011;8594;52.052;8.354;2023-06-01T05:41:59;22.17;;;11.53;;
16954;SDS011;8594;52.052;8.354;2023-06-01T05:44:26;26.53;;;12.10;;
16954;SDS011;8594;52.052;8.354;2023-06-01T05:46:54;30.00;;;12.20;;
16954;SDS011;8594;52.052;8.354;2023-06-01T05:49:21;32.97;;;12.63;;
16954;SDS011;8594;52.052;8.354;2023-06-01T05:51:47;26.67;;;11.80;;
16954;SDS011;8594;52.052;8.354;2023-06-01T05:54:14;24.50;;;11.23;;
16954;SDS011;8594;52.052;8.354;2023-06-01T05:56:41;27.40;;;11.07;;
16954;SDS011;8594;52.052;8.354;2023-06-01T05:59:09;26.90;;;10.97;;
16954;SDS011;8594;52.052;8.354;2023-06-01T06:01:36;18.10;;;9.60;;
16954;SDS011;8594;52.052;8.354;2023-06-01T06:04:05;24.33;;;11.70;;
16954;SDS011;8594;52.052;8.354;2023-06-01T06:06:32;23.47;;;11.13;;
16954;SDS011;8594;52.052;8.354;2023-06-01T06:08:58;32.70;;;12.27;;
16954;SDS011;8594;52.052;8.354;2023-06-01T06:11:25;27.53;;;11.70;;
16954;SDS011;8594;52.052;8.354;2023-06-01T06:13:52;34.50;;;12.50;;
16954;SDS011;8594;52.052;8.354;2023-06-01T06:16:19;30.53;;;12.47;;
16954;SDS011;8594;52.052;8.354;2023-06-01T06:18:46;25.13;;;11.40;;
16954;SDS011;8594;52.052;8.354;2023-06-01T06:21:14;31.80;;;12.80;;
16954;SDS011;8594;52.052;8.354;2023-06-01T06:23:41;26.13;;;11.77;;
16954;SDS011;8594;52.052;8.354;2023-06-01T06:26:08;27.17;;;12.40;;
16954;SDS011;8594;52.052;8.354;2023-06-01T06:28:35;26.83;;;12.20;;
16954;SDS011;8594;52.052;8.354;2023-06-01T06:31:01;23.63;;;12.43;;
16954;SDS011;8594;52.052;8.354;2023-06-01T06:33:28;31.97;;;13.00;;
16954;SDS011;8594;52.052;8.354;2023-06-01T06:35:55;29.13;;;11.67;;
16954;SDS011;8594;52.052;8.354;2023-06-01T06:38:23;26.23;;;11.23;;
16954;SDS011;8594;52.052;8.354;2023-06-01T06:40:50;26.77;;;12.03;;
16954;SDS011;8594;52.052;8.354;2023-06-01T06:43:17;26.30;;;11.73;;
16954;SDS011;8594;52.052;8.354;2023-06-01T06:45:44;23.97;;;12.10;;
16954;SDS011;8594;52.052;8.354;2023-06-01T06:48:11;23.30;;;11.27;;
16954;SDS011;8594;52.052;8.354;2023-06-01T06:50:37;22.90;;;11.57;;
16954;SDS011;8594;52.052;8.354;2023-06-01T06:53:06;29.17;;;13.20;;
16954;SDS011;8594;52.052;8.354;2023-06-01T06:55:35;31.43;;;12.17;;
16954;SDS011;8594;52.052;8.354;2023-06-01T06:58:01;21.03;;;11.50;;
16954;SDS011;8594;52.052;8.354;2023-06-01T07:00:28;24.87;;;12.10;;
16954;SDS011;8594;52.052;8.354;2023-06-01T07:02:56;21.97;;;11.73;;
16954;SDS011;8594;52.052;8.354;2023-06-01T07:05:24;22.63;;;10.77;;
16954;SDS011;8594;52.052;8.354;2023-06-01T07:07:51;25.33;;;10.90;;
16954;SDS011;8594;52.052;8.354;2023-06-01T07:10:18;26.17;;;11.53;;
16954;SDS011;8594;52.052;8.354;2023-06-01T07:12:46;23.57;;;10.73;;
16954;SDS011;8594;52.052;8.354;2023-06-01T07:15:13;28.50;;;11.90;;
16954;SDS011;8594;52.052;8.354;2023-06-01T07:17:41;24.10;;;10.03;;
16954;SDS011;8594;52.052;8.354;2023-06-01T07:20:08;24.97;;;10.73;;
16954;SDS011;8594;52.052;8.354;2023-06-01T07:22:36;20.47;;;9.83;;
16954;SDS011;8594;52.052;8.354;2023-06-01T07:25:05;22.70;;;9.97;;
16954;SDS011;8594;52.052;8.354;2023-06-01T07:27:32;23.00;;;10.57;;
16954;SDS011;8594;52.052;8.354;2023-06-01T07:30:01;27.93;;;11.33;;
16954;SDS011;8594;52.052;8.354;2023-06-01T07:32:28;28.27;;;10.27;;
16954;SDS011;8594;52.052;8.354;2023-06-01T07:34:55;23.07;;;10.23;;
16954;SDS011;8594;52.052;8.354;2023-06-01T07:37:24;23.30;;;10.30;;
16954;SDS011;8594;52.052;8.354;2023-06-01T07:39:52;23.77;;;9.77;;
16954;SDS011;8594;52.052;8.354;2023-06-01T07:42:18;26.33;;;9.53;;
16954;SDS011;8594;52.052;8.354;2023-06-01T07:44:46;24.83;;;9.90;;
16954;SDS011;8594;52.052;8.354;2023-06-01T07:47:14;24.57;;;10.83;;
16954;SDS011;8594;52.052;8.354;2023-06-01T07:49:41;21.27;;;9.40;;
16954;SDS011;8594;52.052;8.354;2023-06-01T07:52:08;19.10;;;9.20;;
16954;SDS011;8594;52.052;8.354;2023-06-01T07:54:34;17.90;;;8.93;;
16954;SDS011;8594;52.052;8.354;2023-06-01T07:57:02;19.27;;;9.03;;
16954;SDS011;8594;52.052;8.354;2023-06-01T07:59:29;23.53;;;9.10;;
16954;SDS011;8594;52.052;8.354;2023-06-01T08:01:56;20.17;;;9.57;;
16954;SDS011;8594;52.052;8.354;2023-06-01T08:04:25;19.70;;;9.03;;
16954;SDS011;8594;52.052;8.354;2023-06-01T08:06:58;17.53;;;8.47;;
16954;SDS011;8594;52.052;8.354;2023-06-01T08:09:28;19.97;;;8.03;;
16954;SDS011;8594;52.052;8.354;2023-06-01T08:11:55;15.10;;;7.87;;
16954;SDS011;8594;52.052;8.354;2023-06-01T08:14:22;18.93;;;7.97;;
16954;SDS011;8594;52.052;8.354;2023-06-01T08:16:49;19.53;;;7.93;;
16954;SDS011;8594;52.052;8.354;2023-06-01T08:19:17;19.87;;;8.43;;
16954;SDS011;8594;52.052;8.354;2023-06-01T08:21:45;16.77;;;8.30;;
16954;SDS011;8594;52.052;8.354;2023-06-01T08:24:12;20.83;;;8.50;;
16954;SDS011;8594;52.052;8.354;2023-06-01T08:26:40;23.00;;;10.40;;
16954;SDS011;8594;52.052;8.354;2023-06-01T08:29:07;17.03;;;7.90;;
16954;SDS011;8594;52.052;8.354;2023-06-01T08:31:34;22.53;;;8.80;;
16954;SDS011;8594;52.052;8.354;2023-06-01T08:34:01;25.67;;;8.93;;
16954;SDS011;8594;52.052;8.354;2023-06-01T08:36:28;19.23;;;8.47;;
16954;SDS011;8594;52.052;8.354;2023-06-01T08:38:57;24.10;;;8.30;;
16954;SDS011;8594;52.052;8.354;2023-06-01T08:41:24;20.20;;;8.50;;
16954;SDS011;8594;52.052;8.354;2023-06-01T08:44:02;16.83;;;7.87;;
16954;SDS011;8594;52.052;8.354;2023-06-01T08:46:31;14.60;;;7.63;;
16954;SDS011;8594;52.052;8.354;2023-06-01T08:48:59;19.47;;;8.17;;
16954;SDS011;8594;52.052;8.354;2023-06-01T08:51:27;14.83;;;8.13;;
16954;SDS011;8594;52.052;8.354;2023-06-01T08:54:00;24.37;;;8.90;;
16954;SDS011;8594;52.052;8.354;2023-06-01T08:56:31;18.87;;;8.60;;
16954;SDS011;8594;52.052;8.354;2023-06-01T08:58:57;26.10;;;8.80;;
16954;SDS011;8594;52.052;8.354;2023-06-01T09:01:27;16.87;;;8.43;;
16954;SDS011;8594;52.052;8.354;2023-06-01T09:03:54;19.70;;;9.03;;
16954;SDS011;8594;52.052;8.354;2023-06-01T09:06:20;26.53;;;8.90;;
16954;SDS011;8594;52.052;8.354;2023-06-01T09:08:47;19.43;;;8.20;;
16954;SDS011;8594;52.052;8.354;2023-06-01T09:11:16;21.17;;;9.57;;
16954;SDS011;8594;52.052;8.354;2023-06-01T09:13:43;14.77;;;7.77;;
16954;SDS011;8594;52.052;8.354;2023-06-01T09:16:10;16.27;;;6.93;;
16954;SDS011;8594;52.052;8.354;2023-06-01T09:18:41;13.57;;;7.40;;
16954;SDS011;8594;52.052;8.354;2023-06-01T09:21:18;17.63;;;6.93;;
16954;SDS011;8594;52.052;8.354;2023-06-01T09:23:45;15.30;;;7.63;;
16954;SDS011;8594;52.052;8.354;2023-06-01T09:26:13;17.03;;;7.90;;
16954;SDS011;8594;52.052;8.354;2023-06-01T09:28:53;14.47;;;6.43;;
16954;SDS011;8594;52.052;8.354;2023-06-01T09:31:34;13.23;;;6.53;;
16954;SDS011;8594;52.052;8.354;2023-06-01T09:34:06;12.03;;;6.47;;
16954;SDS011;8594;52.052;8.354;2023-06-01T09:36:33;12.83;;;6.40;;
16954;SDS011;8594;52.052;8.354;2023-06-01T09:39:02;18.17;;;7.47;;
16954;SDS011;8594;52.052;8.354;2023-06-01T09:41:48;14.90;;;6.47;;
16954;SDS011;8594;52.052;8.354;2023-06-01T09:44:23;14.67;;;5.97;;
16954;SDS011;8594;52.052;8.354;2023-06-01T09:46:52;15.53;;;6.27;;
16954;SDS011;8594;52.052;8.354;2023-06-01T09:49:22;14.87;;;6.57;;
16954;SDS011;8594;52.052;8.354;2023-06-01T09:51:51;17.83;;;7.50;;
16954;SDS011;8594;52.052;8.354;2023-06-01T09:54:23;27.27;;;7.80;;
16954;SDS011;8594;52.052;8.354;2023-06-01T09:56:53;18.30;;;7.77;;
16954;SDS011;8594;52.052;8.354;2023-06-01T09:59:21;14.87;;;7.20;;
16954;SDS011;8594;52.052;8.354;2023-06-01T10:01:50;13.57;;;7.40;;
16954;SDS011;8594;52.052;8.354;2023-06-01T10:04:20;18.10;;;7.10;;
16954;SDS011;8594;52.052;8.354;2023-06-01T10:06:49;14.80;;;7.50;;
16954;SDS011;8594;52.052;8.354;2023-06-01T10:09:18;15.43;;;7.40;;
16954;SDS011;8594;52.052;8.354;2023-06-01T10:11:47;12.63;;;6.10;;
16954;SDS011;8594;52.052;8.354;2023-06-01T10:14:19;11.40;;;5.93;;
16954;SDS011;8594;52.052;8.354;2023-06-01T10:16:48;12.70;;;6.83;;
16954;SDS011;8594;52.052;8.354;2023-06-01T10:19:16;15.30;;;6.27;;
16954;SDS011;8594;52.052;8.354;2023-06-01T10:21:46;14.17;;;5.83;;
16954;SDS011;8594;52.052;8.354;2023-06-01T10:24:13;14.33;;;6.47;;
16954;SDS011;8594;52.052;8.354;2023-06-01T10:26:43;14.37;;;6.87;;
16954;SDS011;8594;52.052;8.354;2023-06-01T10:29:24;11.23;;;5.90;;
16954;SDS011;8594;52.052;8.354;2023-06-01T10:31:52;12.07;;;5.70;;
16954;SDS011;8594;52.052;8.354;2023-06-01T10:37:13;7.60;;;4.60;;
16954;SDS011;8594;52.052;8.354;2023-06-01T10:39:42;8.73;;;5.10;;
16954;SDS011;8594;52.052;8.354;2023-06-01T10:48:05;32.03;;;8.47;;
16954;SDS011;8594;52.052;8.354;2023-06-01T10:50:35;9.83;;;4.90;;
16954;SDS011;8594;52.052;8.354;2023-06-01T11:01:39;10.33;;;5.37;;
16954;SDS011;8594;52.052;8.354;2023-06-01T11:04:08;11.13;;;5.53;;
16954;SDS011;8594;52.052;8.354;2023-06-01T11:06:36;11.60;;;6.13;;
16954;SDS011;8594;52.052;8.354;2023-06-01T11:09:05;9.60;;;5.67;;
16954;SDS011;8594;52.052;8.354;2023-06-01T11:14:26;9.77;;;5.40;;
16954;SDS011;8594;52.052;8.354;2023-06-01T11:17:24;8.47;;;5.70;;
16954;SDS011;8594;52.052;8.354;2023-06-01T11:19:58;9.40;;;5.50;;
16954;SDS011;8594;52.052;8.354;2023-06-01T11:22:36;10.50;;;6.10;;
16954;SDS011;8594;52.052;8.354;2023-06-01T11:25:05;10.40;;;6.23;;
16954;SDS011;8594;52.052;8.354;2023-06-01T11:27:34;12.77;;;6.03;;
16954;SDS011;8594;52.052;8.354;2023-06-01T11:30:02;8.83;;;5.83;;
16954;SDS011;8594;52.052;8.354;2023-06-01T11:32:31;15.73;;;6.47;;
16954;SDS011;8594;52.052;8.354;2023-06-01T11:35:15;12.67;;;6.03;;
16954;SDS011;8594;52.052;8.354;2023-06-01T11:37:43;10.97;;;6.80;;
16954;SDS011;8594;52.052;8.354;2023-06-01T11:40:12;14.33;;;6.50;;
16954;SDS011;8594;52.052;8.354;2023-06-01T11:42:40;12.13;;;6.73;;
16954;SDS011;8594;52.052;8.354;2023-06-01T11:45:07;13.37;;;6.10;;
16954;SDS011;8594;52.052;8.354;2023-06-01T11:47:43;11.20;;;5.73;;
16954;SDS011;8594;52.052;8.354;2023-06-01T11:50:19;10.33;;;6.33;;
16954;SDS011;8594;52.052;8.354;2023-06-01T11:52:51;12.87;;;5.63;;
16954;SDS011;8594;52.052;8.354;2023-06-01T11:55:20;14.43;;;6.43;;
16954;SDS011;8594;52.052;8.354;2023-06-01T11:57:46;11.07;;;6.60;;
16954;SDS011;8594;52.052;8.354;2023-06-01T12:00:13;12.90;;;6.90;;
16954;SDS011;8594;52.052;8.354;2023-06-01T12:02:41;14.50;;;7.43;;
16954;SDS011;8594;52.052;8.354;2023-06-01T12:05:09;13.60;;;7.30;;
16954;SDS011;8594;52.052;8.354;2023-06-01T12:07:44;11.30;;;6.73;;
16954;SDS011;8594;52.052;8.354;2023-06-01T12:10:13;14.37;;;7.33;;
16954;SDS011;8594;52.052;8.354;2023-06-01T12:12:44;14.40;;;7.87;;
16954;SDS011;8594;52.052;8.354;2023-06-01T12:15:13;17.57;;;8.20;;
16954;SDS011;8594;52.052;8.354;2023-06-01T12:17:45;15.57;;;7.40;;
16954;SDS011;8594;52.052;8.354;2023-06-01T12:20:18;13.73;;;6.73;;
16954;SDS011;8594;52.052;8.354;2023-06-01T12:22:53;8.47;;;6.00;;
16954;SDS011;8594;52.052;8.354;2023-06-01T12:25:20;11.90;;;6.50;;
16954;SDS011;8594;52.052;8.354;2023-06-01T12:27:59;11.40;;;6.33;;
16954;SDS011;8594;52.052;8.354;2023-06-01T12:30:27;11.53;;;6.30;;
16954;SDS011;8594;52.052;8.354;2023-06-01T12:32:54;12.47;;;6.70;;
16954;SDS011;8594;52.052;8.354;2023-06-01T12:35:23;11.17;;;5.90;;
16954;SDS011;8594;52.052;8.354;2023-06-01T12:38:05;13.73;;;6.70;;
16954;SDS011;8594;52.052;8.354;2023-06-01T12:40:35;9.53;;;6.57;;
16954;SDS011;8594;52.052;8.354;2023-06-01T12:43:03;12.23;;;6.80;;
16954;SDS011;8594;52.052;8.354;2023-06-01T12:45:34;11.60;;;6.60;;
16954;SDS011;8594;52.052;8.354;2023-06-01T12:48:02;6.43;;;5.27;;
16954;SDS011;8594;52.052;8.354;2023-06-01T12:50:31;8.43;;;5.13;;
16954;SDS011;8594;52.052;8.354;2023-06-01T12:52:58;8.80;;;5.30;;
16954;SDS011;8594;52.052;8.354;2023-06-01T12:55:27;6.73;;;4.47;;
16954;SDS011;8594;52.052;8.354;2023-06-01T12:57:54;7.40;;;4.37;;
16954;SDS011;8594;52.052;8.354;2023-06-01T13:00:22;5.77;;;4.37;;
16954;SDS011;8594;52.052;8.354;2023-06-01T13:02:49;7.00;;;4.80;;
16954;SDS011;8594;52.052;8.354;2023-06-01T13:05:17;10.77;;;5.30;;
16954;SDS011;8594;52.052;8.354;2023-06-01T13:07:45;6.77;;;5.20;;
16954;SDS011;8594;52.052;8.354;2023-06-01T13:10:13;12.90;;;5.60;;
16954;SDS011;8594;52.052;8.354;2023-06-01T13:12:40;10.00;;;5.83;;
16954;SDS011;8594;52.052;8.354;2023-06-01T13:15:07;8.03;;;5.20;;
16954;SDS011;8594;52.052;8.354;2023-06-01T13:17:37;7.93;;;5.50;;
16954;SDS011;8594;52.052;8.354;2023-06-01T13:20:04;6.27;;;4.93;;
16954;SDS011;8594;52.052;8.354;2023-06-01T13:22:32;8.70;;;5.17;;
16954;SDS011;8594;52.052;8.354;2023-06-01T13:25:00;8.67;;;6.00;;
16954;SDS011;8594;52.052;8.354;2023-06-01T13:27:27;9.73;;;5.33;;
16954;SDS011;8594;52.052;8.354;2023-06-01T13:29:54;11.57;;;4.90;;
16954;SDS011;8594;52.052;8.354;2023-06-01T13:32:21;8.40;;;5.30;;
16954;SDS011;8594;52.052;8.354;2023-06-01T13:34:48;8.97;;;4.87;;
16954;SDS011;8594;52.052;8.354;2023-06-01T13:37:15;7.43;;;5.40;;
16954;SDS011;8594;52.052;8.354;2023-06-01T13:39:43;8.23;;;4.37;;
16954;SDS011;8594;52.052;8.354;2023-06-01T13:42:11;8.50;;;4.50;;
16954;SDS011;8594;52.052;8.354;2023-06-01T13:44:37;8.50;;;4.57;;
16954;SDS011;8594;52.052;8.354;2023-06-01T13:47:05;8.97;;;4.97;;
16954;SDS011;8594;52.052;8.354;2023-06-01T13:49:33;7.40;;;4.60;;
16954;SDS011;8594;52.052;8.354;2023-06-01T13:51:59;6.47;;;4.27;;
16954;SDS011;8594;52.052;8.354;2023-06-01T13:54:26;7.83;;;5.10;;
16954;SDS011;8594;52.052;8.354;2023-06-01T13:56:54;6.50;;;4.60;;
16954;SDS011;8594;52.052;8.354;2023-06-01T13:59:23;9.37;;;5.27;;
16954;SDS011;8594;52.052;8.354;2023-06-01T14:01:49;7.33;;;5.03;;
16954;SDS011;8594;52.052;8.354;2023-06-01T14:04:16;6.77;;;4.40;;
16954;SDS011;8594;52.052;8.354;2023-06-01T14:06:43;7.27;;;4.97;;
16954;SDS011;8594;52.052;8.354;2023-06-01T14:09:10;8.73;;;4.53;;
16954;SDS011;8594;52.052;8.354;2023-06-01T14:11:37;8.53;;;5.20;;
16954;SDS011;8594;52.052;8.354;2023-06-01T14:14:04;7.87;;;4.23;;
16954;SDS011;8594;52.052;8.354;2023-06-01T14:16:32;7.30;;;4.20;;
16954;SDS011;8594;52.052;8.354;2023-06-01T14:18:59;6.97;;;4.37;;
16954;SDS011;8594;52.052;8.354;2023-06-01T14:21:26;6.37;;;4.40;;
16954;SDS011;8594;52.052;8.354;2023-06-01T14:23:53;8.70;;;4.67;;
16954;SDS011;8594;52.052;8.354;2023-06-01T14:26:20;5.83;;;4.03;;
16954;SDS011;8594;52.052;8.354;2023-06-01T14:28:47;9.33;;;4.43;;
16954;SDS011;8594;52.052;8.354;2023-06-01T14:31:14;41.73;;;11.33;;
16954;SDS011;8594;52.052;8.354;2023-06-01T14:33:42;6.93;;;3.63;;
16954;SDS011;8594;52.052;8.354;2023-06-01T14:36:10;7.20;;;3.70;;
16954;SDS011;8594;52.052;8.354;2023-06-01T14:38:36;4.90;;;3.60;;
16954;SDS011;8594;52.052;8.354;2023-06-01T14:41:03;7.50;;;3.50;;
16954;SDS011;8594;52.052;8.354;2023-06-01T14:43:30;4.57;;;3.27;;
16954;SDS011;8594;52.052;8.354;2023-06-01T14:45:57;6.37;;;3.80;;
16954;SDS011;8594;52.052;8.354;2023-06-01T14:48:25;7.03;;;4.13;;
16954;SDS011;8594;52.052;8.354;2023-06-01T14:50:53;8.57;;;4.40;;
16954;SDS011;8594;52.052;8.354;2023-06-01T14:53:20;11.33;;;4.50;;
16954;SDS011;8594;52.052;8.354;2023-06-01T14:55:46;5.73;;;4.50;;
16954;SDS011;8594;52.052;8.354;2023-06-01T14:58:14;5.00;;;3.87;;
16954;SDS011;8594;52.052;8.354;2023-06-01T15:00:41;5.67;;;4.27;;
16954;SDS011;8594;52.052;8.354;2023-06-01T15:03:08;6.43;;;4.20;;
16954;SDS011;8594;52.052;8.354;2023-06-01T15:05:35;5.83;;;4.10;;
16954;SDS011;8594;52.052;8.354;2023-06-01T15:08:04;7.13;;;4.33;;
16954;SDS011;8594;52.052;8.354;2023-06-01T15:10:32;7.10;;;4.17;;
16954;SDS011;8594;52.052;8.354;2023-06-01T15:12:59;6.07;;;4.17;;
16954;SDS011;8594;52.052;8.354;2023-06-01T15:15:25;6.30;;;4.20;;